createdAt,value
2022-12-25T00:01:22.041Z,6.74
2022-12-25T00:03:49.222Z,6.81
2022-12-25T00:06:16.671Z,6.85
2022-12-25T00:08:43.374Z,6.91
2022-12-25T00:11:14.222Z,6.96
2022-12-25T00:13:41.481Z,7.01
2022-12-25T00:16:09.325Z,7.02
2022-12-25T00:18:36.122Z,7.02
2022-12-25T00:21:04.368Z,7.07
2022-12-25T00:23:33.330Z,7.12
2022-12-25T00:26:00.045Z,7.14
2022-12-25T00:28:27.638Z,7.19
2022-12-25T00:30:54.371Z,7.23
2022-12-25T00:33:21.187Z,7.26
2022-12-25T00:35:58.752Z,7.29
2022-12-25T00:38:25.996Z,7.32
2022-12-25T00:40:53.088Z,7.35
2022-12-25T00:43:20.197Z,7.41
2022-12-25T00:45:59.938Z,7.44
2022-12-25T00:48:27.201Z,7.48
2022-12-25T00:50:57.780Z,7.51
2022-12-25T00:53:25.336Z,7.56
2022-12-25T00:55:56.507Z,7.58
2022-12-25T00:58:24.499Z,7.61
2022-12-25T01:00:51.186Z,7.65
2022-12-25T01:03:18.400Z,7.69
2022-12-25T01:05:45.558Z,7.70
2022-12-25T01:08:13.908Z,7.73
2022-12-25T01:10:40.655Z,7.75
2022-12-25T01:13:08.266Z,7.79
2022-12-25T01:15:36.681Z,7.83
2022-12-25T01:18:07.781Z,7.86
2022-12-25T01:20:35.969Z,7.89
2022-12-25T01:23:02.745Z,7.94
2022-12-25T01:25:29.488Z,7.96
2022-12-25T01:27:56.126Z,8.00
2022-12-25T01:30:23.790Z,8.01
2022-12-25T01:32:50.519Z,7.97
2022-12-25T01:35:17.368Z,7.95
2022-12-25T01:37:44.058Z,7.80
2022-12-25T01:40:10.936Z,8.03
2022-12-25T01:42:37.697Z,8.05
2022-12-25T01:45:16.689Z,8.05
2022-12-25T01:48:13.141Z,8.04
2022-12-25T01:50:42.434Z,8.07
2022-12-25T01:53:09.262Z,8.10
2022-12-25T01:55:36.436Z,8.12
2022-12-25T01:58:03.529Z,8.13
2022-12-25T02:00:30.384Z,8.14
2022-12-25T02:02:57.945Z,8.13
2022-12-25T02:05:24.891Z,8.15
2022-12-25T02:07:52.435Z,8.18
2022-12-25T02:10:19.367Z,8.20
2022-12-25T02:12:47.733Z,8.22
2022-12-25T02:15:19.843Z,8.25
2022-12-25T02:17:55.734Z,8.26
2022-12-25T02:20:30.597Z,8.28
2022-12-25T02:23:16.045Z,8.31
2022-12-25T02:25:48.831Z,8.36
2022-12-25T02:28:18.628Z,8.38
2022-12-25T02:30:55.085Z,8.42
2022-12-25T02:33:47.146Z,8.45
2022-12-25T02:36:15.963Z,8.48
2022-12-25T02:39:05.350Z,8.48
2022-12-25T02:41:35.154Z,8.51
2022-12-25T02:44:22.172Z,8.54
2022-12-25T02:47:09.097Z,8.56
2022-12-25T02:49:55.568Z,8.56
2022-12-25T02:52:41.786Z,8.57
2022-12-25T02:55:30.207Z,8.58
2022-12-25T02:58:18.453Z,8.59
2022-12-25T03:01:06.175Z,8.57
2022-12-25T03:03:55.288Z,8.57
2022-12-25T03:06:41.497Z,8.35
2022-12-25T03:09:28.399Z,8.53
2022-12-25T03:11:59.382Z,8.56
2022-12-25T03:14:44.398Z,8.55
2022-12-25T03:17:11.265Z,8.56
2022-12-25T03:19:56.772Z,8.56
2022-12-25T03:22:43.432Z,8.59
2022-12-25T03:25:29.062Z,8.60
2022-12-25T03:27:57.090Z,8.59
2022-12-25T03:30:45.551Z,8.57
2022-12-25T03:33:44.470Z,8.57
2022-12-25T03:36:26.348Z,8.56
2022-12-25T03:39:05.319Z,8.55
2022-12-25T03:41:50.573Z,8.53
2022-12-25T03:44:32.318Z,8.53
2022-12-25T03:47:24.064Z,8.49
2022-12-25T03:50:17.292Z,8.45
2022-12-25T03:53:03.835Z,8.42
2022-12-25T03:55:49.473Z,8.38
2022-12-25T03:58:42.517Z,8.33
2022-12-25T04:01:27.802Z,8.30
2022-12-25T04:04:13.163Z,8.28
2022-12-25T04:06:58.295Z,8.30
2022-12-25T04:09:44.391Z,8.31
2022-12-25T04:12:30.625Z,8.31
2022-12-25T04:15:15.603Z,8.31
2022-12-25T04:18:00.815Z,8.32
2022-12-25T04:20:46.620Z,8.33
2022-12-25T04:23:32.737Z,8.34
2022-12-25T04:26:17.995Z,8.34
2022-12-25T04:29:03.150Z,8.35
2022-12-25T04:31:48.400Z,8.37
2022-12-25T04:34:33.489Z,8.39
2022-12-25T04:37:00.315Z,8.40
2022-12-25T04:39:26.989Z,8.40
2022-12-25T04:41:53.795Z,8.40
2022-12-25T04:44:20.430Z,8.42
2022-12-25T04:46:48.032Z,8.42
2022-12-25T04:49:14.834Z,8.42
2022-12-25T04:51:41.598Z,8.42
2022-12-25T04:54:08.270Z,8.43
2022-12-25T04:56:38.526Z,8.46
2022-12-25T04:59:09.359Z,8.46
2022-12-25T05:01:36.216Z,8.47
2022-12-25T05:04:03.149Z,8.50
2022-12-25T05:06:29.837Z,8.53
2022-12-25T05:08:56.616Z,8.53
2022-12-25T05:11:23.339Z,8.53
2022-12-25T05:13:50.184Z,8.55
2022-12-25T05:16:18.482Z,8.56
2022-12-25T05:18:45.716Z,8.58
2022-12-25T05:21:12.638Z,8.59
2022-12-25T05:23:48.546Z,8.59
2022-12-25T05:26:16.815Z,8.60
2022-12-25T05:28:43.668Z,8.62
2022-12-25T05:31:11.724Z,8.62
2022-12-25T05:33:38.569Z,8.62
2022-12-25T05:36:07.460Z,8.63
2022-12-25T05:38:34.349Z,8.62
2022-12-25T05:41:01.298Z,8.60
2022-12-25T05:43:29.018Z,8.62
2022-12-25T05:45:57.787Z,8.64
2022-12-25T05:48:24.434Z,8.63
2022-12-25T05:50:52.321Z,8.63
2022-12-25T05:53:19.999Z,8.64
2022-12-25T05:55:48.808Z,8.66
2022-12-25T05:58:15.497Z,8.66
2022-12-25T06:00:43.668Z,8.65
2022-12-25T06:03:10.474Z,8.64
2022-12-25T06:05:38.113Z,8.62
2022-12-25T06:08:04.819Z,8.64
2022-12-25T06:10:31.569Z,8.62
2022-12-25T06:12:58.299Z,8.59
2022-12-25T06:15:25.923Z,8.55
2022-12-25T06:17:52.567Z,8.56
2022-12-25T06:20:20.101Z,8.57
2022-12-25T06:22:46.999Z,8.59
2022-12-25T06:25:13.880Z,8.59
2022-12-25T06:27:40.556Z,8.60
2022-12-25T06:30:07.686Z,8.60
2022-12-25T06:32:34.401Z,8.59
2022-12-25T06:35:01.331Z,8.59
2022-12-25T06:37:28.080Z,8.61
2022-12-25T06:39:55.198Z,8.62
2022-12-25T06:42:21.939Z,8.64
2022-12-25T06:44:48.759Z,8.61
2022-12-25T06:47:15.434Z,8.60
2022-12-25T06:49:43.039Z,8.62
2022-12-25T06:52:09.732Z,8.62
2022-12-25T06:54:37.378Z,8.64
2022-12-25T06:57:04.107Z,8.65
2022-12-25T06:59:30.843Z,8.66
2022-12-25T07:01:57.678Z,8.66
2022-12-25T07:04:32.357Z,8.66
2022-12-25T07:07:04.451Z,8.69
2022-12-25T07:09:35.096Z,8.69
2022-12-25T07:12:13.817Z,8.70
2022-12-25T07:14:40.691Z,8.70
2022-12-25T07:17:07.436Z,8.73
2022-12-25T07:19:37.119Z,8.77
2022-12-25T07:22:06.472Z,8.80
2022-12-25T07:24:33.163Z,8.81
2022-12-25T07:26:59.973Z,8.80
2022-12-25T07:29:26.710Z,8.78
2022-12-25T07:31:53.467Z,8.80
2022-12-25T07:34:20.210Z,8.79
2022-12-25T07:36:47.071Z,8.81
2022-12-25T07:39:13.825Z,8.84
2022-12-25T07:41:40.540Z,8.86
2022-12-25T07:44:14.210Z,8.89
2022-12-25T07:46:40.958Z,8.89
2022-12-25T07:49:07.703Z,8.88
2022-12-25T07:51:34.591Z,8.92
2022-12-25T07:54:01.286Z,8.97
2022-12-25T07:56:28.819Z,9.01
2022-12-25T07:58:55.642Z,9.06
2022-12-25T08:01:26.853Z,9.07
2022-12-25T08:03:58.796Z,9.14
2022-12-25T08:06:30.049Z,9.23
2022-12-25T08:08:58.180Z,9.29
2022-12-25T08:11:24.896Z,9.34
2022-12-25T08:13:52.558Z,9.39
2022-12-25T08:16:19.277Z,9.41
2022-12-25T08:18:46.045Z,9.47
2022-12-25T08:21:13.647Z,9.52
2022-12-25T08:23:42.849Z,9.58
2022-12-25T08:26:14.811Z,9.63
2022-12-25T08:28:42.395Z,9.69
2022-12-25T08:31:16.668Z,9.70
2022-12-25T08:33:44.313Z,9.75
2022-12-25T08:36:11.942Z,9.80
2022-12-25T08:38:39.776Z,9.83
2022-12-25T08:41:06.975Z,9.84
2022-12-25T08:43:33.771Z,9.89
2022-12-25T08:46:00.533Z,9.88
2022-12-25T08:48:28.063Z,9.93
2022-12-25T08:50:54.839Z,9.97
2022-12-25T08:53:21.913Z,10.00
2022-12-25T08:55:48.643Z,10.07
2022-12-25T08:58:16.831Z,10.09
2022-12-25T09:00:43.643Z,10.15
2022-12-25T09:03:10.526Z,10.22
2022-12-25T09:05:41.027Z,10.36
2022-12-25T09:08:08.038Z,10.53
2022-12-25T09:10:37.859Z,10.63
2022-12-25T09:13:04.714Z,10.72
2022-12-25T09:15:31.528Z,10.78
2022-12-25T09:17:59.174Z,10.82
2022-12-25T09:20:25.888Z,10.81
2022-12-25T09:22:52.712Z,10.72
2022-12-25T09:25:19.397Z,10.64
2022-12-25T09:27:46.565Z,10.63
2022-12-25T09:30:13.364Z,10.69
2022-12-25T09:32:40.634Z,10.78
2022-12-25T09:35:08.121Z,10.86
2022-12-25T09:37:36.216Z,10.97
2022-12-25T09:40:03.130Z,11.07
2022-12-25T09:42:34.777Z,11.11
2022-12-25T09:45:09.977Z,11.17
2022-12-25T09:47:38.615Z,11.21
2022-12-25T09:50:12.279Z,11.25
2022-12-25T09:52:46.662Z,11.26
2022-12-25T09:55:19.748Z,11.25
2022-12-25T09:57:56.050Z,11.30
2022-12-25T10:00:24.956Z,11.36
2022-12-25T10:02:56.980Z,11.40
2022-12-25T10:05:39.077Z,11.43
2022-12-25T10:08:38.133Z,11.54
2022-12-25T10:11:24.992Z,11.63
2022-12-25T10:13:54.586Z,11.71
2022-12-25T10:16:44.572Z,11.67
2022-12-25T10:19:24.852Z,11.71
2022-12-25T10:21:55.638Z,11.75
2022-12-25T10:24:30.881Z,11.80
2022-12-25T10:27:01.540Z,11.89
2022-12-25T10:29:30.812Z,11.97
2022-12-25T10:31:57.664Z,12.04
2022-12-25T10:34:24.766Z,12.08
2022-12-25T10:36:51.472Z,12.05
2022-12-25T10:39:19.371Z,12.02
2022-12-25T10:41:46.102Z,11.96
2022-12-25T10:44:24.629Z,11.85
2022-12-25T10:46:53.019Z,11.73
2022-12-25T10:49:20.959Z,11.63
2022-12-25T10:51:48.116Z,11.56
2022-12-25T10:54:20.281Z,11.49
2022-12-25T10:56:54.651Z,11.50
2022-12-25T10:59:21.627Z,11.47
2022-12-25T11:01:53.588Z,11.48
2022-12-25T11:04:24.722Z,11.51
2022-12-25T11:07:00.540Z,11.51
2022-12-25T11:09:27.837Z,11.49
2022-12-25T11:11:54.638Z,11.49
2022-12-25T11:14:22.881Z,11.56
2022-12-25T11:16:50.679Z,11.57
2022-12-25T11:19:20.608Z,11.58
2022-12-25T11:21:50.858Z,11.57
2022-12-25T11:24:22.252Z,11.60
2022-12-25T11:26:52.886Z,11.56
2022-12-25T11:29:25.313Z,11.55
2022-12-25T11:31:53.716Z,11.49
2022-12-25T11:34:46.892Z,11.46
2022-12-25T11:37:36.063Z,11.49
2022-12-25T11:40:04.928Z,11.52
2022-12-25T11:42:39.182Z,11.54
2022-12-25T11:45:18.493Z,11.56
2022-12-25T11:47:54.183Z,11.51
2022-12-25T11:50:39.951Z,11.46
2022-12-25T11:56:12.460Z,11.43
2022-12-25T11:58:42.314Z,11.45
2022-12-25T12:01:21.669Z,11.45
2022-12-25T12:03:49.556Z,11.40
2022-12-25T12:06:31.523Z,11.36
2022-12-25T12:09:18.810Z,11.31
2022-12-25T12:11:53.970Z,11.27
2022-12-25T12:14:23.785Z,11.21
2022-12-25T12:16:51.828Z,11.21
2022-12-25T12:19:34.767Z,11.22
2022-12-25T12:22:06.873Z,11.26
2022-12-25T12:24:44.453Z,11.31
2022-12-25T12:27:37.816Z,11.34
2022-12-25T12:30:06.153Z,11.33
2022-12-25T12:32:48.858Z,11.35
2022-12-25T12:35:18.648Z,11.36
2022-12-25T12:38:06.529Z,11.38
2022-12-25T12:40:58.387Z,11.41
2022-12-25T12:43:43.504Z,11.45
2022-12-25T12:46:31.574Z,11.52
2022-12-25T12:49:18.420Z,11.54
2022-12-25T12:51:45.628Z,11.55
2022-12-25T12:54:20.283Z,11.59
2022-12-25T12:57:11.018Z,11.62
2022-12-25T12:59:47.523Z,11.65
2022-12-25T13:02:35.825Z,11.68
2022-12-25T13:05:21.183Z,11.68
2022-12-25T13:07:52.606Z,11.65
2022-12-25T13:10:29.008Z,11.64
2022-12-25T13:13:17.963Z,11.63
2022-12-25T13:15:47.588Z,11.60
2022-12-25T13:18:14.539Z,11.61
2022-12-25T13:21:11.157Z,11.62
2022-12-25T13:23:41.436Z,11.65
2022-12-25T13:26:15.009Z,11.64
2022-12-25T13:28:43.214Z,11.62
2022-12-25T13:31:22.081Z,11.63
2022-12-25T13:33:56.907Z,11.63
2022-12-25T13:36:26.313Z,11.60
2022-12-25T13:39:04.899Z,11.61
2022-12-25T13:42:05.652Z,11.60
2022-12-25T13:44:51.498Z,11.63
2022-12-25T13:47:35.748Z,11.63
2022-12-25T13:50:24.945Z,11.64
2022-12-25T13:52:55.206Z,11.66
2022-12-25T13:55:27.735Z,11.67
2022-12-25T13:58:01.942Z,11.71
2022-12-25T14:00:37.897Z,11.72
2022-12-25T14:03:16.450Z,11.72
2022-12-25T14:05:44.648Z,11.71
2022-12-25T14:08:34.646Z,11.72
2022-12-25T14:11:04.699Z,11.67
2022-12-25T14:13:56.176Z,11.64
2022-12-25T14:16:24.165Z,11.59
2022-12-25T14:18:52.070Z,11.55
2022-12-25T14:21:38.722Z,11.54
2022-12-25T14:24:13.042Z,11.51
2022-12-25T14:26:41.430Z,11.51
2022-12-25T14:29:17.686Z,11.51
2022-12-25T14:31:52.808Z,11.47
2022-12-25T14:34:24.934Z,11.42
2022-12-25T14:36:56.340Z,11.38
2022-12-25T14:39:29.758Z,11.37
2022-12-25T14:41:58.589Z,11.33
2022-12-25T14:44:44.860Z,11.33
2022-12-25T14:47:17.571Z,11.29
2022-12-25T14:49:47.006Z,11.33
2022-12-25T14:52:28.578Z,11.30
2022-12-25T14:55:06.900Z,11.30
2022-12-25T14:57:39.171Z,11.26
2022-12-25T15:00:22.101Z,11.27
2022-12-25T15:02:56.255Z,11.26
2022-12-25T15:05:32.093Z,11.28
2022-12-25T15:08:20.494Z,11.27
2022-12-25T15:11:05.101Z,11.25
2022-12-25T15:13:33.078Z,11.22
2022-12-25T15:16:09.329Z,11.20
2022-12-25T15:18:41.580Z,11.21
2022-12-25T15:21:26.545Z,11.22
2022-12-25T15:23:54.934Z,11.23
2022-12-25T15:26:25.813Z,11.22
2022-12-25T15:28:52.817Z,11.23
2022-12-25T15:31:27.969Z,11.23
2022-12-25T15:33:58.259Z,11.23
2022-12-25T15:36:28.304Z,11.24
2022-12-25T15:38:56.713Z,11.22
2022-12-25T15:41:54.526Z,11.20
2022-12-25T15:44:25.500Z,11.18
2022-12-25T15:46:52.859Z,11.17
2022-12-25T15:49:19.892Z,11.15
2022-12-25T15:51:51.262Z,11.16
2022-12-25T15:54:18.975Z,11.13
2022-12-25T15:56:56.590Z,11.10
2022-12-25T15:59:26.949Z,11.07
2022-12-25T16:01:55.494Z,11.04
2022-12-25T16:04:23.723Z,11.03
2022-12-25T16:06:52.660Z,11.00
2022-12-25T16:09:35.112Z,11.00
2022-12-25T16:12:03.174Z,11.03
2022-12-25T16:14:30.091Z,11.01
2022-12-25T16:17:01.560Z,11.01
2022-12-25T16:19:32.320Z,11.02
2022-12-25T16:22:00.936Z,11.04
2022-12-25T16:24:30.948Z,11.04
2022-12-25T16:26:58.950Z,11.04
2022-12-25T16:29:26.849Z,11.04
2022-12-25T16:31:53.899Z,11.04
2022-12-25T16:34:23.413Z,11.05
2022-12-25T16:36:51.880Z,11.03
2022-12-25T16:39:19.819Z,11.03
2022-12-25T16:41:48.486Z,11.02
2022-12-25T16:44:15.992Z,11.02
2022-12-25T16:46:55.296Z,11.02
2022-12-25T16:49:25.479Z,11.01
2022-12-25T16:52:04.772Z,11.01
2022-12-25T16:54:32.035Z,11.00
2022-12-25T16:57:01.033Z,11.00
2022-12-25T16:59:28.594Z,11.00
2022-12-25T17:01:56.755Z,10.98
2022-12-25T17:04:26.142Z,10.98
2022-12-25T17:06:53.010Z,10.99
2022-12-25T17:09:19.815Z,11.00
2022-12-25T17:11:48.237Z,10.97
2022-12-25T17:14:17.308Z,10.98
2022-12-25T17:16:45.543Z,11.01
2022-12-25T17:19:19.479Z,11.04
2022-12-25T17:21:47.446Z,11.08
2022-12-25T17:24:15.491Z,11.15
2022-12-25T17:26:44.027Z,11.20
2022-12-25T17:29:19.971Z,11.25
2022-12-25T17:31:51.565Z,11.29
2022-12-25T17:34:19.080Z,11.31
2022-12-25T17:36:49.722Z,11.32
2022-12-25T17:39:19.689Z,11.33
2022-12-25T17:41:49.039Z,11.34
2022-12-25T17:44:20.600Z,11.36
2022-12-25T17:46:49.922Z,11.37
2022-12-25T17:49:18.568Z,11.39
2022-12-25T17:51:47.236Z,11.40
2022-12-25T17:54:14.506Z,11.42
2022-12-25T17:56:43.712Z,11.45
2022-12-25T17:59:20.337Z,11.48
2022-12-25T18:01:49.325Z,11.51
2022-12-25T18:04:19.382Z,11.52
2022-12-25T18:06:49.853Z,11.51
2022-12-25T18:09:22.219Z,11.49
2022-12-25T18:11:50.099Z,11.49
2022-12-25T18:14:18.444Z,11.49
2022-12-25T18:16:48.754Z,11.50
2022-12-25T18:19:18.563Z,11.51
2022-12-25T18:21:46.118Z,11.52
2022-12-25T18:24:14.271Z,11.54
2022-12-25T18:26:43.541Z,11.55
2022-12-25T18:29:11.502Z,11.54
2022-12-25T18:31:40.028Z,11.52
2022-12-25T18:34:11.391Z,11.52
2022-12-25T18:36:39.265Z,11.51
2022-12-25T18:39:06.524Z,11.49
2022-12-25T18:41:55.851Z,11.48
2022-12-25T18:44:23.412Z,11.45
2022-12-25T18:46:50.315Z,11.42
2022-12-25T18:49:18.404Z,11.41
2022-12-25T18:51:45.131Z,11.36
2022-12-25T18:54:15.802Z,11.31
2022-12-25T18:56:43.195Z,11.27
2022-12-25T18:59:12.461Z,11.23
2022-12-25T19:01:40.281Z,11.20
2022-12-25T19:04:15.408Z,11.15
2022-12-25T19:06:43.630Z,11.11
2022-12-25T19:09:13.303Z,11.06
2022-12-25T19:11:46.785Z,11.02
2022-12-25T19:14:15.879Z,10.97
2022-12-25T19:16:43.394Z,10.92
2022-12-25T19:19:14.667Z,10.86
2022-12-25T19:21:43.430Z,10.82
2022-12-25T19:24:11.383Z,10.79
2022-12-25T19:26:38.210Z,10.74
2022-12-25T19:29:08.656Z,10.70
2022-12-25T19:31:38.606Z,10.66
2022-12-25T19:34:07.831Z,10.62
2022-12-25T19:36:39.365Z,10.57
2022-12-25T19:39:09.840Z,10.53
2022-12-25T19:41:38.222Z,10.50
2022-12-25T19:44:05.691Z,10.48
2022-12-25T19:47:02.932Z,10.48
2022-12-25T19:49:34.848Z,10.48
2022-12-25T19:52:05.421Z,10.48
2022-12-25T19:54:37.158Z,10.49
2022-12-25T19:57:07.851Z,10.49
2022-12-25T19:59:36.043Z,10.49
2022-12-25T20:02:06.198Z,10.49
2022-12-25T20:04:38.942Z,10.51
2022-12-25T20:07:07.109Z,10.52
2022-12-25T20:09:36.150Z,10.54
2022-12-25T20:12:04.712Z,10.58
2022-12-25T20:14:32.592Z,10.63
2022-12-25T20:17:00.325Z,10.65
2022-12-25T20:19:28.660Z,10.67
2022-12-25T20:21:56.263Z,10.69
2022-12-25T20:24:27.406Z,10.71
2022-12-25T20:26:59.128Z,10.72
2022-12-25T20:29:27.730Z,10.72
2022-12-25T20:32:00.711Z,10.73
2022-12-25T20:34:29.633Z,10.77
2022-12-25T20:36:57.356Z,10.78
2022-12-25T20:39:27.328Z,10.82
2022-12-25T20:41:55.446Z,10.85
2022-12-25T20:44:22.246Z,10.87
2022-12-25T20:46:50.419Z,10.89
2022-12-25T20:49:19.729Z,10.93
2022-12-25T20:51:47.325Z,10.96
2022-12-25T20:54:17.488Z,10.98
2022-12-25T20:56:44.264Z,11.00
2022-12-25T20:59:12.669Z,11.01
2022-12-25T21:01:41.986Z,11.02
2022-12-25T21:04:12.975Z,11.03
2022-12-25T21:06:45.257Z,11.01
2022-12-25T21:09:13.843Z,11.02
2022-12-25T21:11:41.666Z,10.99
2022-12-25T21:14:10.116Z,10.95
2022-12-25T21:16:40.762Z,10.93
2022-12-25T21:19:09.349Z,10.91
2022-12-25T21:21:43.238Z,10.87
2022-12-25T21:24:11.464Z,10.81
2022-12-25T21:26:44.419Z,10.76
2022-12-25T21:29:16.810Z,10.72
2022-12-25T21:32:04.570Z,10.68
2022-12-25T21:34:31.398Z,10.60
2022-12-25T21:37:01.523Z,10.56
2022-12-25T21:39:28.451Z,10.53
2022-12-25T21:41:56.302Z,10.51
2022-12-25T21:44:27.469Z,10.50
2022-12-25T21:46:54.421Z,10.50
2022-12-25T21:49:42.100Z,10.48
2022-12-25T21:52:11.550Z,10.43
2022-12-25T21:54:38.979Z,10.36
2022-12-25T21:57:07.057Z,10.31
2022-12-25T21:59:37.127Z,10.27
2022-12-25T22:02:11.635Z,10.23
2022-12-25T22:04:39.625Z,10.19
2022-12-25T22:07:19.502Z,10.17
2022-12-25T22:09:53.354Z,10.15
2022-12-25T22:12:40.165Z,10.12
2022-12-25T22:15:12.177Z,10.08
2022-12-25T22:17:59.156Z,10.06
2022-12-25T22:20:38.054Z,10.03
2022-12-25T22:23:07.769Z,9.98
2022-12-25T22:25:35.507Z,9.93
2022-12-25T22:28:04.529Z,9.91
2022-12-25T22:30:32.616Z,9.87
2022-12-25T22:33:03.453Z,9.84
2022-12-25T22:35:30.433Z,9.79
2022-12-25T22:37:57.587Z,9.77
2022-12-25T22:40:25.403Z,9.73
2022-12-25T22:42:55.891Z,9.72
2022-12-25T22:45:25.925Z,9.69
2022-12-25T22:47:53.505Z,9.64
2022-12-25T22:50:23.555Z,9.62
2022-12-25T22:52:54.074Z,9.59
2022-12-25T22:58:05.814Z,9.61
2022-12-25T23:00:39.744Z,9.62
2022-12-25T23:03:11.720Z,9.65
2022-12-25T23:05:40.324Z,9.69
2022-12-25T23:08:08.587Z,9.73
2022-12-25T23:10:36.599Z,9.78
2022-12-25T23:13:22.308Z,9.85
2022-12-25T23:15:51.578Z,9.93
2022-12-25T23:18:38.399Z,10.00
2022-12-25T23:21:26.271Z,10.05
2022-12-25T23:24:13.484Z,10.12
2022-12-25T23:26:41.514Z,10.16
2022-12-25T23:29:29.036Z,10.20
2022-12-25T23:31:59.344Z,10.25
2022-12-25T23:34:30.571Z,10.30
2022-12-25T23:36:57.754Z,10.34
2022-12-25T23:39:28.534Z,10.37
2022-12-25T23:41:59.073Z,10.40
2022-12-25T23:44:28.891Z,10.41
2022-12-25T23:46:56.979Z,10.45
2022-12-25T23:49:27.756Z,10.48
2022-12-25T23:51:54.764Z,10.48
2022-12-25T23:54:24.018Z,10.49
2022-12-25T23:59:33.660Z,10.47
